createdAt,value
2022-10-31T00:01:42.705Z,99.90
2022-10-31T00:04:11.858Z,99.90
2022-10-31T00:06:40.973Z,99.90
2022-10-31T00:09:12.215Z,99.90
2022-10-31T00:11:41.378Z,99.90
2022-10-31T00:14:10.680Z,99.90
2022-10-31T00:16:39.879Z,99.90
2022-10-31T00:19:10.337Z,99.90
2022-10-31T00:21:39.610Z,99.90
2022-10-31T00:24:09.189Z,99.90
2022-10-31T00:26:38.275Z,99.90
2022-10-31T00:29:07.518Z,99.90
2022-10-31T00:31:36.578Z,99.90
2022-10-31T00:34:05.713Z,99.90
2022-10-31T00:36:34.854Z,99.90
2022-10-31T00:39:03.981Z,99.90
2022-10-31T00:41:33.058Z,99.90
2022-10-31T00:44:02.206Z,99.90
2022-10-31T00:46:31.512Z,99.90
2022-10-31T00:49:00.634Z,99.90
2022-10-31T00:51:29.684Z,99.90
2022-10-31T00:53:58.709Z,99.90
2022-10-31T00:56:27.752Z,99.90
2022-10-31T00:58:56.948Z,99.90
2022-10-31T01:01:26.127Z,99.90
2022-10-31T01:03:55.236Z,99.90
2022-10-31T01:06:24.351Z,99.90
2022-10-31T01:08:53.372Z,99.90
2022-10-31T01:11:25.429Z,99.90
2022-10-31T01:13:56.278Z,99.90
2022-10-31T01:16:31.435Z,99.90
2022-10-31T01:19:00.720Z,99.90
2022-10-31T01:21:31.979Z,99.90
2022-10-31T01:24:01.481Z,99.90
2022-10-31T01:26:33.958Z,99.90
2022-10-31T01:29:07.862Z,99.90
2022-10-31T01:31:41.594Z,99.90
2022-10-31T01:34:18.691Z,99.90
2022-10-31T01:36:52.987Z,99.90
2022-10-31T01:39:22.285Z,99.90
2022-10-31T01:42:00.394Z,99.90
2022-10-31T01:44:33.452Z,99.90
2022-10-31T01:47:21.733Z,99.90
2022-10-31T01:50:26.001Z,99.90
2022-10-31T01:53:00.103Z,99.90
2022-10-31T01:55:40.967Z,99.90
2022-10-31T01:58:16.881Z,99.90
2022-10-31T02:00:56.691Z,99.90
2022-10-31T02:03:28.651Z,99.90
2022-10-31T02:06:04.999Z,99.90
2022-10-31T02:08:37.217Z,99.90
2022-10-31T02:11:16.699Z,99.90
2022-10-31T02:13:45.991Z,99.90
2022-10-31T02:16:15.679Z,99.90
2022-10-31T02:18:44.864Z,99.90
2022-10-31T02:21:26.327Z,99.90
2022-10-31T02:24:22.091Z,99.90
2022-10-31T02:27:39.071Z,99.90
2022-10-31T02:30:30.316Z,99.90
2022-10-31T02:33:35.545Z,99.90
2022-10-31T02:36:24.792Z,99.90
2022-10-31T02:39:14.934Z,99.90
2022-10-31T02:41:57.634Z,99.90
2022-10-31T02:45:49.477Z,99.90
2022-10-31T02:48:28.639Z,99.90
2022-10-31T02:51:07.845Z,99.90
2022-10-31T02:53:39.548Z,99.90
2022-10-31T02:56:21.448Z,99.90
2022-10-31T02:59:07.361Z,99.80
2022-10-31T03:01:54.578Z,99.90
2022-10-31T03:05:24.011Z,99.90
2022-10-31T03:08:32.329Z,99.90
2022-10-31T03:11:09.068Z,99.90
2022-10-31T03:14:08.316Z,99.10
2022-10-31T03:16:52.419Z,99.90
2022-10-31T03:19:56.856Z,99.90
2022-10-31T03:22:33.777Z,98.90
2022-10-31T03:25:07.186Z,99.10
2022-10-31T03:27:41.825Z,98.80
2022-10-31T03:30:12.057Z,99.10
2022-10-31T03:33:12.078Z,99.10
2022-10-31T03:35:47.383Z,98.70
2022-10-31T03:38:17.983Z,98.80
2022-10-31T03:40:53.942Z,98.40
2022-10-31T03:43:32.420Z,98.00
2022-10-31T03:46:02.521Z,97.40
2022-10-31T03:48:31.963Z,96.90
2022-10-31T03:51:17.342Z,96.80
2022-10-31T03:54:41.344Z,96.90
2022-10-31T03:57:44.038Z,96.80
2022-10-31T04:00:16.839Z,96.50
2022-10-31T04:03:30.617Z,96.20
2022-10-31T04:06:06.721Z,96.30
2022-10-31T04:08:54.828Z,95.80
2022-10-31T04:11:29.777Z,95.70
2022-10-31T04:14:01.334Z,94.80
2022-10-31T04:16:30.922Z,93.60
2022-10-31T04:19:00.253Z,93.50
2022-10-31T04:21:33.245Z,94.20
2022-10-31T04:24:02.444Z,94.10
2022-10-31T04:26:31.510Z,94.20
2022-10-31T04:29:00.579Z,93.70
2022-10-31T04:31:29.780Z,94.00
2022-10-31T04:33:58.884Z,93.80
2022-10-31T04:36:28.010Z,92.80
2022-10-31T04:38:57.283Z,92.50
2022-10-31T04:41:26.504Z,92.20
2022-10-31T04:43:56.279Z,91.90
2022-10-31T04:46:26.072Z,92.40
2022-10-31T04:48:55.180Z,94.90
2022-10-31T04:51:24.520Z,92.10
2022-10-31T04:53:53.697Z,91.20
2022-10-31T04:56:22.805Z,91.90
2022-10-31T04:58:52.013Z,91.30
2022-10-31T05:01:21.273Z,91.60
2022-10-31T05:03:50.464Z,91.50
2022-10-31T05:06:19.743Z,91.50
2022-10-31T05:08:48.834Z,91.40
2022-10-31T05:11:17.942Z,91.70
2022-10-31T05:13:47.093Z,90.10
2022-10-31T05:16:16.392Z,90.30
2022-10-31T05:18:48.130Z,90.70
2022-10-31T05:21:17.264Z,91.00
2022-10-31T05:23:48.509Z,91.60
2022-10-31T05:26:17.832Z,91.10
2022-10-31T05:28:46.956Z,90.80
2022-10-31T05:31:16.108Z,90.10
2022-10-31T05:33:45.240Z,90.00
2022-10-31T05:36:14.380Z,90.00
2022-10-31T05:38:43.474Z,90.00
2022-10-31T05:41:12.747Z,89.70
2022-10-31T05:43:43.085Z,89.10
2022-10-31T05:46:12.207Z,89.60
2022-10-31T05:48:41.370Z,88.50
2022-10-31T05:51:10.521Z,88.60
2022-10-31T05:53:39.753Z,88.40
2022-10-31T05:56:09.235Z,88.10
2022-10-31T05:58:38.451Z,87.40
2022-10-31T06:01:07.986Z,87.90
2022-10-31T06:03:37.191Z,88.50
2022-10-31T06:06:06.640Z,88.20
2022-10-31T06:08:35.877Z,87.00
2022-10-31T06:11:05.004Z,87.20
2022-10-31T06:13:34.298Z,86.30
2022-10-31T06:16:03.475Z,86.00
2022-10-31T06:18:32.572Z,85.60
2022-10-31T06:21:01.748Z,83.90
2022-10-31T06:23:30.893Z,83.70
2022-10-31T06:26:00.009Z,82.90
2022-10-31T06:28:29.187Z,84.40
2022-10-31T06:30:58.386Z,82.80
2022-10-31T06:33:27.549Z,83.90
2022-10-31T06:35:56.769Z,84.70
2022-10-31T06:38:27.219Z,83.90
2022-10-31T06:40:57.241Z,84.10
2022-10-31T06:43:27.138Z,83.30
2022-10-31T06:45:56.273Z,83.60
2022-10-31T06:48:26.164Z,84.40
2022-10-31T06:50:59.525Z,83.30
2022-10-31T06:53:33.489Z,83.00
2022-10-31T06:56:02.740Z,84.00
2022-10-31T06:58:32.052Z,83.30
2022-10-31T07:01:04.670Z,83.90
2022-10-31T07:03:33.994Z,84.80
2022-10-31T07:06:03.216Z,84.40
2022-10-31T07:08:32.389Z,83.70
2022-10-31T07:11:01.576Z,85.00
2022-10-31T07:13:30.700Z,84.60
2022-10-31T07:16:08.554Z,83.10
2022-10-31T07:18:37.939Z,84.10
2022-10-31T07:21:07.682Z,82.70
2022-10-31T07:23:36.935Z,82.40
2022-10-31T07:26:07.094Z,83.30
2022-10-31T07:28:36.226Z,83.80
2022-10-31T07:31:06.595Z,84.00
2022-10-31T07:33:35.731Z,83.10
2022-10-31T07:36:05.091Z,82.40
2022-10-31T07:38:34.261Z,81.90
2022-10-31T07:41:03.895Z,81.40
2022-10-31T07:43:33.795Z,81.80
2022-10-31T07:46:02.863Z,83.70
2022-10-31T07:48:31.946Z,83.50
2022-10-31T07:51:01.047Z,83.80
2022-10-31T07:53:30.194Z,82.20
2022-10-31T07:55:59.245Z,82.70
2022-10-31T07:58:28.357Z,82.60
2022-10-31T08:00:57.528Z,82.80
2022-10-31T08:03:26.933Z,83.80
2022-10-31T08:05:56.009Z,82.30
2022-10-31T08:08:26.101Z,82.40
2022-10-31T08:10:55.173Z,82.30
2022-10-31T08:13:25.394Z,82.00
2022-10-31T08:15:55.719Z,81.70
2022-10-31T08:18:25.818Z,83.00
2022-10-31T08:20:56.157Z,83.10
2022-10-31T08:23:25.206Z,83.10
2022-10-31T08:25:54.305Z,82.30
2022-10-31T08:28:23.349Z,81.40
2022-10-31T08:30:52.425Z,81.00
2022-10-31T08:33:22.155Z,81.10
2022-10-31T08:35:51.654Z,82.10
2022-10-31T08:38:21.474Z,83.60
2022-10-31T08:40:52.005Z,83.40
2022-10-31T08:43:21.283Z,83.90
2022-10-31T08:45:56.288Z,83.10
2022-10-31T08:48:25.498Z,83.60
2022-10-31T08:51:00.155Z,84.30
2022-10-31T08:53:29.853Z,84.90
2022-10-31T08:55:59.453Z,85.60
2022-10-31T08:58:29.076Z,85.50
2022-10-31T09:01:01.377Z,85.30
2022-10-31T09:03:33.978Z,84.70
2022-10-31T09:06:07.673Z,86.10
2022-10-31T09:08:37.611Z,84.90
2022-10-31T09:11:08.474Z,85.10
2022-10-31T09:13:41.136Z,84.60
2022-10-31T09:16:10.650Z,85.40
2022-10-31T09:18:39.785Z,86.30
2022-10-31T09:21:09.729Z,86.60
2022-10-31T09:23:38.848Z,86.90
2022-10-31T09:26:08.475Z,87.50
2022-10-31T09:28:37.727Z,87.80
2022-10-31T09:31:06.912Z,88.10
2022-10-31T09:33:35.973Z,88.10
2022-10-31T09:36:05.213Z,88.10
2022-10-31T09:38:34.335Z,88.60
2022-10-31T09:41:57.143Z,88.80
2022-10-31T09:45:05.160Z,89.00
2022-10-31T09:48:06.118Z,89.90
2022-10-31T09:51:00.216Z,89.90
2022-10-31T09:54:23.661Z,89.50
2022-10-31T09:56:53.268Z,89.80
2022-10-31T09:59:36.393Z,89.90
2022-10-31T10:02:44.234Z,90.20
2022-10-31T10:05:30.046Z,90.40
2022-10-31T10:08:21.921Z,90.50
2022-10-31T10:11:17.038Z,90.70
2022-10-31T10:14:14.534Z,90.80
2022-10-31T10:17:03.061Z,91.00
2022-10-31T10:20:02.176Z,91.20
2022-10-31T10:23:09.058Z,91.40
2022-10-31T10:25:43.556Z,91.40
2022-10-31T10:28:24.089Z,91.60
2022-10-31T10:31:15.538Z,91.70
2022-10-31T10:34:21.105Z,91.70
2022-10-31T10:36:57.036Z,91.90
2022-10-31T10:39:38.993Z,92.10
2022-10-31T10:42:35.090Z,92.20
2022-10-31T10:45:38.554Z,92.40
2022-10-31T10:48:26.399Z,92.50
2022-10-31T10:50:55.825Z,92.50
2022-10-31T10:54:09.544Z,92.70
2022-10-31T10:56:59.148Z,92.70
2022-10-31T10:59:29.450Z,93.00
2022-10-31T11:01:58.599Z,92.90
2022-10-31T11:04:38.649Z,93.10
2022-10-31T11:07:13.839Z,93.20
2022-10-31T11:09:43.177Z,93.30
2022-10-31T11:12:31.417Z,93.40
2022-10-31T11:15:30.194Z,93.50
2022-10-31T11:18:00.277Z,93.70
2022-10-31T11:20:38.760Z,93.80
2022-10-31T11:23:23.685Z,93.80
2022-10-31T11:26:05.873Z,93.90
2022-10-31T11:28:39.365Z,93.90
2022-10-31T11:31:18.219Z,94.00
2022-10-31T11:33:48.952Z,94.00
2022-10-31T11:36:45.305Z,94.10
2022-10-31T11:39:25.231Z,94.30
2022-10-31T11:41:57.406Z,94.60
2022-10-31T11:44:32.930Z,94.80
2022-10-31T11:47:09.842Z,94.60
2022-10-31T11:49:51.504Z,94.60
2022-10-31T11:52:42.622Z,94.70
2022-10-31T11:55:41.848Z,94.60
2022-10-31T11:58:27.026Z,94.70
2022-10-31T12:00:59.337Z,94.80
2022-10-31T12:04:00.385Z,94.60
2022-10-31T12:06:39.726Z,94.70
2022-10-31T12:09:28.083Z,94.70
2022-10-31T12:12:11.941Z,94.90
2022-10-31T12:15:35.060Z,95.30
2022-10-31T12:18:46.544Z,95.50
2022-10-31T12:21:33.189Z,95.90
2022-10-31T12:24:46.621Z,96.20
2022-10-31T12:28:16.763Z,96.20
2022-10-31T12:31:23.302Z,96.40
2022-10-31T12:33:58.171Z,96.60
2022-10-31T12:36:39.009Z,96.80
2022-10-31T12:39:39.249Z,96.90
2022-10-31T12:42:37.372Z,97.10
2022-10-31T12:45:40.301Z,97.20
2022-10-31T12:48:48.484Z,96.70
2022-10-31T12:51:43.893Z,97.40
2022-10-31T12:54:49.077Z,97.70
2022-10-31T12:57:41.109Z,97.60
2022-10-31T13:00:20.455Z,97.80
2022-10-31T13:03:24.140Z,97.90
2022-10-31T13:06:05.691Z,98.20
2022-10-31T13:09:00.170Z,98.30
2022-10-31T13:12:03.528Z,98.20
2022-10-31T13:14:47.110Z,98.00
2022-10-31T13:17:44.267Z,98.40
2022-10-31T13:20:38.122Z,98.30
2022-10-31T13:27:00.492Z,98.80
2022-10-31T13:30:15.521Z,99.10
2022-10-31T13:33:02.324Z,99.10
2022-10-31T13:36:07.406Z,99.50
2022-10-31T13:39:28.880Z,99.40
2022-10-31T13:42:12.311Z,99.40
2022-10-31T13:44:43.349Z,99.60
2022-10-31T13:47:29.956Z,99.90
2022-10-31T13:50:26.260Z,99.70
2022-10-31T13:53:16.430Z,99.90
2022-10-31T13:56:30.128Z,99.90
2022-10-31T13:59:19.214Z,99.90
2022-10-31T14:01:58.341Z,99.90
2022-10-31T14:04:51.256Z,99.90
2022-10-31T14:07:24.731Z,99.90
2022-10-31T14:10:02.659Z,99.90
2022-10-31T14:12:45.988Z,99.90
2022-10-31T14:15:20.128Z,99.90
2022-10-31T14:18:25.063Z,99.90
2022-10-31T14:20:54.229Z,99.90
2022-10-31T14:23:42.519Z,99.90
2022-10-31T14:26:28.978Z,99.90
2022-10-31T14:29:18.958Z,99.90
2022-10-31T14:31:57.533Z,99.90
2022-10-31T14:34:41.834Z,99.90
2022-10-31T14:37:42.168Z,99.90
2022-10-31T14:40:29.684Z,99.90
2022-10-31T14:43:36.705Z,99.90
2022-10-31T14:46:49.107Z,99.90
2022-10-31T14:49:56.979Z,99.90
2022-10-31T14:52:26.067Z,99.90
2022-10-31T14:55:00.828Z,99.90
2022-10-31T14:57:38.390Z,99.90
2022-10-31T15:00:20.561Z,99.90
2022-10-31T15:03:14.265Z,99.90
2022-10-31T15:05:55.404Z,99.90
2022-10-31T15:08:38.149Z,99.90
2022-10-31T15:11:24.480Z,99.90
2022-10-31T15:14:04.319Z,99.90
2022-10-31T15:16:38.885Z,99.90
2022-10-31T15:19:25.221Z,99.90
2022-10-31T15:21:57.816Z,99.90
2022-10-31T15:24:37.491Z,99.90
2022-10-31T15:27:07.351Z,99.90
2022-10-31T15:29:36.382Z,99.90
2022-10-31T15:32:24.782Z,99.90
2022-10-31T15:34:56.220Z,99.90
2022-10-31T15:37:28.008Z,99.90
2022-10-31T15:39:57.144Z,99.90
2022-10-31T15:42:41.688Z,99.90
2022-10-31T15:45:14.421Z,99.90
2022-10-31T15:48:02.299Z,99.90
2022-10-31T15:50:42.296Z,99.90
2022-10-31T15:53:36.967Z,99.90
2022-10-31T15:56:13.115Z,99.90
2022-10-31T15:58:53.154Z,99.90
2022-10-31T16:01:36.301Z,99.90
2022-10-31T16:04:26.265Z,99.90
2022-10-31T16:07:21.828Z,99.90
2022-10-31T16:10:02.018Z,99.90
2022-10-31T16:12:48.118Z,99.90
2022-10-31T16:15:21.580Z,99.90
2022-10-31T16:17:57.921Z,99.90
2022-10-31T16:20:34.082Z,99.90
2022-10-31T16:23:03.655Z,99.90
2022-10-31T16:25:40.588Z,99.90
2022-10-31T16:28:28.337Z,99.90
2022-10-31T16:31:00.984Z,99.90
2022-10-31T16:33:39.087Z,99.90
2022-10-31T16:36:41.603Z,99.90
2022-10-31T16:39:11.643Z,99.90
2022-10-31T16:41:46.626Z,99.90
2022-10-31T16:44:28.783Z,99.90
2022-10-31T16:47:19.692Z,99.90
2022-10-31T16:49:52.220Z,99.90
2022-10-31T16:52:21.677Z,99.90
2022-10-31T16:54:50.818Z,99.90
2022-10-31T16:57:31.343Z,99.90
2022-10-31T17:00:00.774Z,99.90
2022-10-31T17:02:30.765Z,99.90
2022-10-31T17:04:59.855Z,99.90
2022-10-31T17:07:28.882Z,99.90
2022-10-31T17:09:58.369Z,99.90
2022-10-31T17:12:30.063Z,99.90
2022-10-31T17:14:59.457Z,99.90
2022-10-31T17:17:28.582Z,99.90
2022-10-31T17:19:57.670Z,99.90
2022-10-31T17:22:28.942Z,99.90
2022-10-31T17:24:58.047Z,99.90
2022-10-31T17:27:27.090Z,99.90
2022-10-31T17:29:56.150Z,99.90
2022-10-31T17:32:25.192Z,99.90
2022-10-31T17:34:54.230Z,99.90
2022-10-31T17:37:23.288Z,99.90
2022-10-31T17:39:52.380Z,99.90
2022-10-31T17:42:21.433Z,99.90
2022-10-31T17:44:50.875Z,99.90
2022-10-31T17:47:20.057Z,99.90
2022-10-31T17:49:49.165Z,99.90
2022-10-31T17:52:18.314Z,99.90
2022-10-31T17:54:47.713Z,99.90
2022-10-31T17:57:17.144Z,99.90
2022-10-31T17:59:46.202Z,99.90
2022-10-31T18:02:15.439Z,99.90
2022-10-31T18:04:44.661Z,99.90
2022-10-31T18:07:13.844Z,99.90
2022-10-31T18:09:42.882Z,99.90
2022-10-31T18:12:11.985Z,99.90
2022-10-31T18:14:45.881Z,99.90
2022-10-31T18:17:17.301Z,99.90
2022-10-31T18:19:46.886Z,99.90
2022-10-31T18:22:15.930Z,99.90
2022-10-31T18:24:44.980Z,99.90
2022-10-31T18:27:14.037Z,99.90
2022-10-31T18:29:43.106Z,99.90
2022-10-31T18:32:12.195Z,99.90
2022-10-31T18:34:41.359Z,99.90
2022-10-31T18:37:10.481Z,99.90
2022-10-31T18:39:39.652Z,99.90
2022-10-31T18:42:08.724Z,99.90
2022-10-31T18:44:39.137Z,99.90
2022-10-31T18:47:08.303Z,99.90
2022-10-31T18:49:37.590Z,99.90
2022-10-31T18:52:06.755Z,99.90
2022-10-31T18:54:35.878Z,99.90
2022-10-31T18:57:05.147Z,99.90
2022-10-31T18:59:34.235Z,99.90
2022-10-31T19:02:03.557Z,99.90
2022-10-31T19:04:32.741Z,99.90
2022-10-31T19:07:01.832Z,99.90
2022-10-31T19:09:32.708Z,99.90
2022-10-31T19:12:01.829Z,99.90
2022-10-31T19:14:30.919Z,99.90
2022-10-31T19:17:02.267Z,99.90
2022-10-31T19:19:31.818Z,99.90
2022-10-31T19:22:02.695Z,99.90
2022-10-31T19:24:31.738Z,99.90
2022-10-31T19:27:01.619Z,99.90
2022-10-31T19:29:31.447Z,99.90
2022-10-31T19:32:00.498Z,99.90
2022-10-31T19:34:29.518Z,99.90
2022-10-31T19:36:58.636Z,99.90
2022-10-31T19:39:28.179Z,99.90
2022-10-31T19:41:57.276Z,99.90
2022-10-31T19:44:26.455Z,99.90
2022-10-31T19:46:55.504Z,99.90
2022-10-31T19:49:24.991Z,99.90
2022-10-31T19:51:54.101Z,99.90
2022-10-31T19:54:23.819Z,99.90
2022-10-31T19:56:53.067Z,99.90
2022-10-31T19:59:22.549Z,99.90
2022-10-31T20:01:51.668Z,99.90
2022-10-31T20:04:20.867Z,99.90
2022-10-31T20:06:49.932Z,99.90
2022-10-31T20:09:19.654Z,99.90
2022-10-31T20:11:49.291Z,99.90
2022-10-31T20:14:20.152Z,99.90
2022-10-31T20:16:49.282Z,99.90
2022-10-31T20:19:18.341Z,99.90
2022-10-31T20:21:47.559Z,99.90
2022-10-31T20:24:17.086Z,99.90
2022-10-31T20:26:46.138Z,99.90
2022-10-31T20:29:17.192Z,99.90
2022-10-31T20:31:48.189Z,99.90
2022-10-31T20:34:17.854Z,99.90
2022-10-31T20:36:47.574Z,99.90
2022-10-31T20:39:16.678Z,99.90
2022-10-31T20:41:45.791Z,99.90
2022-10-31T20:44:15.349Z,99.90
2022-10-31T20:46:44.578Z,99.90
2022-10-31T20:49:13.935Z,99.90
2022-10-31T20:51:43.095Z,99.90
2022-10-31T20:54:16.193Z,99.90
2022-10-31T20:56:45.445Z,99.90
2022-10-31T20:59:16.090Z,99.90
2022-10-31T21:01:45.412Z,99.90
2022-10-31T21:04:14.780Z,99.90
2022-10-31T21:06:49.084Z,99.90
2022-10-31T21:09:19.087Z,99.90
2022-10-31T21:11:48.222Z,99.90
2022-10-31T21:14:17.319Z,99.90
2022-10-31T21:16:46.722Z,99.90
2022-10-31T21:19:15.855Z,99.90
2022-10-31T21:21:45.043Z,99.90
2022-10-31T21:24:21.316Z,99.90
2022-10-31T21:26:53.353Z,99.90
2022-10-31T21:29:23.863Z,99.90
2022-10-31T21:31:53.255Z,99.90
2022-10-31T21:34:22.385Z,99.90
2022-10-31T21:36:51.517Z,99.90
2022-10-31T21:39:20.843Z,99.90
2022-10-31T21:41:49.975Z,99.90
2022-10-31T21:44:20.208Z,99.90
2022-10-31T21:46:49.586Z,99.90
2022-10-31T21:49:18.622Z,99.90
2022-10-31T21:51:48.561Z,99.90
2022-10-31T21:54:29.709Z,99.90
2022-10-31T21:57:01.579Z,99.90
2022-10-31T21:59:31.771Z,99.90
2022-10-31T22:02:01.679Z,99.90
2022-10-31T22:04:31.157Z,99.90
2022-10-31T22:07:00.215Z,99.90
2022-10-31T22:09:29.310Z,99.90
2022-10-31T22:11:58.434Z,99.90
2022-10-31T22:14:27.827Z,99.90
2022-10-31T22:16:56.955Z,99.90
2022-10-31T22:19:27.779Z,99.90
2022-10-31T22:21:56.889Z,99.90
2022-10-31T22:24:25.976Z,99.90
2022-10-31T22:26:55.198Z,99.90
2022-10-31T22:29:24.295Z,99.90
2022-10-31T22:31:58.557Z,99.90
2022-10-31T22:34:28.771Z,99.90
2022-10-31T22:36:58.036Z,99.90
2022-10-31T22:39:27.149Z,99.90
2022-10-31T22:41:56.251Z,99.90
2022-10-31T22:44:25.402Z,99.90
2022-10-31T22:46:54.540Z,99.90
2022-10-31T22:49:23.677Z,99.90
2022-10-31T22:51:53.461Z,99.90
2022-10-31T22:54:22.573Z,99.90
2022-10-31T22:56:51.684Z,99.90
2022-10-31T22:59:20.889Z,99.90
2022-10-31T23:01:50.157Z,99.90
2022-10-31T23:04:19.407Z,99.90
2022-10-31T23:06:50.062Z,99.90
2022-10-31T23:09:19.516Z,99.90
2022-10-31T23:11:48.777Z,99.90
2022-10-31T23:14:21.884Z,99.90
2022-10-31T23:16:53.790Z,99.90
2022-10-31T23:19:29.072Z,99.90
2022-10-31T23:22:03.007Z,99.90
2022-10-31T23:24:39.433Z,99.90
2022-10-31T23:27:11.761Z,99.90
2022-10-31T23:29:48.660Z,99.90
2022-10-31T23:32:28.451Z,99.90
2022-10-31T23:35:04.969Z,99.90
2022-10-31T23:37:39.343Z,99.90
2022-10-31T23:40:09.688Z,99.90
2022-10-31T23:42:38.899Z,99.90
2022-10-31T23:45:09.539Z,99.90
2022-10-31T23:47:43.236Z,99.90
2022-10-31T23:50:12.803Z,99.90
2022-10-31T23:52:41.950Z,99.90
2022-10-31T23:55:11.625Z,99.90
2022-10-31T23:57:40.758Z,99.90
